Time;durP1;ratioP1;P1;durP2;ratioP2;P2;SDS_P1;SDS_P2;PMS_P1;PMS_P2;Temp;Humidity;BMP_temperature;BMP_pressure;BME280_temperature;BME280_humidity;BME280_pressure;Samples;Min_cycle;Max_cycle;Signal;HPM_P1;HPM_P2
2022/05/11 00:01:52;;;;;;;1.58;1.30;;;20.30;56.20;;;;;;5094784;28;20170;-68
2022/05/11 00:04:18;;;;;;;1.40;1.30;;;20.20;56.20;;;;;;5094539;28;20266;-69
2022/05/11 00:06:43;;;;;;;2.28;1.40;;;20.30;56.30;;;;;;5093689;28;20479;-69
2022/05/11 00:09:10;;;;;;;1.55;1.42;;;20.30;56.30;;;;;;5094621;28;20184;-70
2022/05/11 00:11:36;;;;;;;1.73;1.42;;;20.20;56.30;;;;;;5094149;28;20178;-72
2022/05/11 00:14:02;;;;;;;1.15;1.13;;;20.20;56.30;;;;;;5093755;28;20190;-71
2022/05/11 00:16:27;;;;;;;1.60;1.50;;;20.30;56.30;;;;;;5094606;28;20193;-71
2022/05/11 00:18:53;;;;;;;2.38;1.30;;;20.20;56.30;;;;;;5094171;28;20189;-71
2022/05/11 00:21:19;;;;;;;2.95;1.70;;;20.30;56.40;;;;;;5093625;28;20173;-70
2022/05/11 00:23:44;;;;;;;1.38;1.27;;;20.30;56.40;;;;;;5093824;28;20189;-72
2022/05/11 00:26:10;;;;;;;2.53;1.52;;;20.20;56.40;;;;;;5094282;28;20178;-70
2022/05/11 00:28:35;;;;;;;1.85;1.30;;;20.20;56.30;;;;;;5093095;28;20273;-70
2022/05/11 00:31:01;;;;;;;1.30;1.13;;;20.20;56.30;;;;;;5094313;28;20253;-69
2022/05/11 00:33:26;;;;;;;1.52;1.42;;;20.20;56.40;;;;;;5094177;28;20355;-69
2022/05/11 00:35:52;;;;;;;1.52;1.42;;;20.20;56.40;;;;;;5093168;28;20185;-70
2022/05/11 00:38:19;;;;;;;2.70;1.35;;;20.20;56.40;;;;;;5093961;28;20189;-69
2022/05/11 00:40:50;;;;;;;1.80;1.60;;;20.20;56.40;;;;;;5093637;28;20181;-70
2022/05/11 00:43:24;;;;;;;1.42;1.13;;;20.20;56.40;;;;;;5093356;28;20257;-70
2022/05/11 00:45:50;;;;;;;1.88;1.75;;;20.20;56.40;;;;;;5093037;28;20196;-69
2022/05/11 00:51:03;;;;;;;1.45;1.33;;;20.20;56.40;;;;;;5092895;28;20173;-70
2022/05/11 00:53:29;;;;;;;1.60;1.50;;;20.20;56.40;;;;;;5093795;28;20202;-70
2022/05/11 00:55:56;;;;;;;1.67;1.30;;;20.20;56.50;;;;;;5091547;28;20181;-70
2022/05/11 00:58:44;;;;;;;1.40;1.10;;;20.20;56.50;;;;;;5092738;28;20280;-70
2022/05/11 01:01:09;;;;;;;1.45;1.35;;;20.20;56.50;;;;;;5092752;28;20174;-69
2022/05/11 01:03:40;;;;;;;1.50;1.40;;;20.20;56.50;;;;;;5091708;28;20638;-69
2022/05/11 01:06:06;;;;;;;1.45;1.35;;;20.10;56.50;;;;;;5092481;28;20337;-70
2022/05/11 01:08:31;;;;;;;1.25;1.15;;;20.20;56.50;;;;;;5092619;28;20174;-71
2022/05/11 01:10:59;;;;;;;1.50;1.40;;;20.20;56.50;;;;;;5091416;28;20211;-72
2022/05/11 01:13:24;;;;;;;2.10;1.30;;;20.20;56.50;;;;;;5092404;28;20210;-71
2022/05/11 01:15:50;;;;;;;2.83;1.40;;;20.20;56.50;;;;;;5093369;28;20176;-71
2022/05/11 01:18:16;;;;;;;1.83;1.50;;;20.20;56.50;;;;;;5091504;28;20200;-71
2022/05/11 01:20:41;;;;;;;2.15;1.30;;;20.20;56.60;;;;;;5091773;28;20637;-71
2022/05/11 01:23:22;;;;;;;1.80;1.27;;;20.10;56.50;;;;;;5093273;28;20182;-71
2022/05/11 01:25:47;;;;;;;1.38;1.27;;;20.20;56.60;;;;;;5091274;28;20258;-71
2022/05/11 01:28:15;;;;;;;1.60;1.35;;;20.20;56.60;;;;;;5093341;28;20605;-71
2022/05/11 01:30:44;;;;;;;1.70;1.40;;;20.20;56.60;;;;;;5092294;28;20204;-69
2022/05/11 01:33:13;;;;;;;1.50;1.38;;;20.10;56.60;;;;;;5093034;28;20290;-70
2022/05/11 01:35:50;;;;;;;1.92;1.48;;;20.10;56.60;;;;;;5092976;28;20264;-70
2022/05/11 01:38:27;;;;;;;1.55;1.45;;;20.10;56.60;;;;;;5091291;28;20222;-70
2022/05/11 01:40:53;;;;;;;2.13;1.50;;;20.10;56.60;;;;;;5091409;28;20223;-71
2022/05/11 01:43:21;;;;;;;2.55;1.50;;;20.10;56.60;;;;;;5093019;28;20185;-69
2022/05/11 01:45:46;;;;;;;1.55;1.45;;;20.10;56.60;;;;;;5091831;28;20637;-70
2022/05/11 01:48:12;;;;;;;1.88;1.20;;;20.10;56.60;;;;;;5092960;28;20184;-70
2022/05/11 01:50:37;;;;;;;1.42;1.33;;;20.10;56.60;;;;;;5092596;28;20174;-70
2022/05/11 01:53:04;;;;;;;1.60;1.50;;;20.10;56.60;;;;;;5092053;28;20232;-71
2022/05/11 01:55:30;;;;;;;1.50;1.40;;;20.10;56.60;;;;;;5092735;28;20178;-71
2022/05/11 01:57:55;;;;;;;1.58;1.48;;;20.10;56.60;;;;;;5092332;28;20177;-72
2022/05/11 02:00:21;;;;;;;0.93;0.93;;;20.10;56.60;;;;;;5091789;28;20231;-70
2022/05/11 02:02:46;;;;;;;1.85;1.48;;;20.10;56.60;;;;;;5092184;28;20574;-70
2022/05/11 02:07:56;;;;;;;1.88;1.25;;;20.10;56.60;;;;;;5091412;28;20231;-70
2022/05/11 02:10:23;;;;;;;2.08;1.55;;;20.10;56.60;;;;;;5092563;28;20165;-71
2022/05/11 02:12:49;;;;;;;1.85;1.60;;;20.00;56.60;;;;;;5091474;28;20217;-72
2022/05/11 02:15:15;;;;;;;1.70;1.60;;;20.10;56.60;;;;;;5092325;28;20529;-72
2022/05/11 02:17:41;;;;;;;1.50;1.40;;;20.10;56.60;;;;;;5092294;28;20210;-71
2022/05/11 02:20:08;;;;;;;1.52;1.20;;;20.10;56.60;;;;;;5091530;28;20312;-71
2022/05/11 02:22:33;;;;;;;2.38;1.20;;;20.00;56.60;;;;;;5092238;28;20178;-72
2022/05/11 02:24:59;;;;;;;1.08;1.08;;;20.00;56.60;;;;;;5092019;28;20185;-71
2022/05/11 02:27:24;;;;;;;3.60;1.33;;;20.00;56.60;;;;;;5091397;28;20181;-71
2022/05/11 02:29:49;;;;;;;1.73;1.52;;;20.00;56.60;;;;;;5092387;28;20174;-71
2022/05/11 02:32:15;;;;;;;1.98;1.52;;;20.00;56.60;;;;;;5092145;28;20206;-70
2022/05/11 02:37:25;;;;;;;1.40;1.30;;;20.00;56.60;;;;;;5092354;28;20238;-72
2022/05/11 02:39:50;;;;;;;1.60;1.50;;;20.00;56.60;;;;;;5091793;28;20231;-70
2022/05/11 02:42:18;;;;;;;2.05;1.40;;;20.00;56.60;;;;;;5091655;28;20636;-72
2022/05/11 02:44:44;;;;;;;3.08;1.50;;;20.00;56.60;;;;;;5091892;28;20174;-72
2022/05/11 02:47:09;;;;;;;4.22;1.67;;;20.00;56.70;;;;;;5092129;28;20196;-71
2022/05/11 02:49:35;;;;;;;1.40;1.30;;;20.00;56.60;;;;;;5091060;28;20178;-71
2022/05/11 02:52:00;;;;;;;1.60;1.50;;;20.00;56.60;;;;;;5091697;28;20205;-71
2022/05/11 02:54:26;;;;;;;1.95;1.52;;;20.00;56.60;;;;;;5091829;28;20176;-72
2022/05/11 02:56:51;;;;;;;2.63;1.63;;;20.00;56.60;;;;;;5090815;28;20173;-72
2022/05/11 02:59:17;;;;;;;1.75;0.95;;;20.00;56.60;;;;;;5091643;28;20506;-71
2022/05/11 03:01:43;;;;;;;2.75;1.60;;;20.00;56.60;;;;;;5091657;28;20683;-72
2022/05/11 03:04:08;;;;;;;2.42;1.65;;;20.00;56.60;;;;;;5090792;28;20294;-70
2022/05/11 03:06:34;;;;;;;1.65;1.50;;;20.00;56.60;;;;;;5091813;28;20186;-72
2022/05/11 03:09:00;;;;;;;1.60;1.50;;;20.00;56.60;;;;;;5091739;28;20537;-72
2022/05/11 03:11:25;;;;;;;2.08;1.60;;;20.00;56.60;;;;;;5090883;28;20178;-72
2022/05/11 03:13:51;;;;;;;1.60;1.48;;;20.00;56.60;;;;;;5091434;28;20303;-72
2022/05/11 03:16:16;;;;;;;1.80;1.70;;;20.00;56.60;;;;;;5090877;28;20255;-72
2022/05/11 03:18:42;;;;;;;1.67;1.55;;;20.00;56.60;;;;;;5091358;28;20174;-72
2022/05/11 03:21:07;;;;;;;1.60;1.50;;;20.00;56.60;;;;;;5091610;28;20253;-72
2022/05/11 03:23:33;;;;;;;1.83;1.70;;;20.00;56.60;;;;;;5090673;28;20177;-72
2022/05/11 03:25:58;;;;;;;1.60;1.50;;;19.90;56.50;;;;;;5093418;28;20166;-72
2022/05/11 03:28:24;;;;;;;1.70;1.60;;;20.00;56.50;;;;;;5095591;28;20181;-71
2022/05/11 03:30:50;;;;;;;2.13;1.95;;;20.00;56.50;;;;;;5094252;28;20201;-72
2022/05/11 03:35:59;;;;;;;2.00;1.48;;;20.00;57.20;;;;;;5095270;28;20242;-70
2022/05/11 03:38:25;;;;;;;1.70;1.60;;;20.00;56.50;;;;;;5094838;28;20624;-70
2022/05/11 03:40:50;;;;;;;1.67;1.58;;;20.00;56.60;;;;;;5095101;28;20182;-70
2022/05/11 03:43:16;;;;;;;1.80;1.38;;;19.90;56.50;;;;;;5095370;28;20170;-70
2022/05/11 03:45:41;;;;;;;3.10;2.10;;;20.00;56.60;;;;;;5094273;28;20504;-71
2022/05/11 03:48:07;;;;;;;2.47;1.55;;;19.90;56.50;;;;;;5095155;28;20174;-70
2022/05/11 03:50:33;;;;;;;2.08;1.85;;;19.90;56.50;;;;;;5094947;28;20235;-71
2022/05/11 03:52:58;;;;;;;1.70;1.60;;;19.90;57.20;;;;;;5093769;28;20679;-71
2022/05/11 03:55:24;;;;;;;2.38;1.67;;;19.90;56.50;;;;;;5094747;28;20177;-72
2022/05/11 03:57:50;;;;;;;2.10;1.90;;;19.90;56.50;;;;;;5094506;28;20186;-72
2022/05/11 04:00:21;;;;;;;2.30;2.10;;;19.90;56.40;;;;;;5094045;28;20702;-70
2022/05/11 04:02:47;;;;;;;2.42;1.95;;;19.90;56.40;;;;;;5094488;28;20182;-72
2022/05/11 04:05:13;;;;;;;1.92;1.83;;;19.90;56.30;;;;;;5094663;28;20648;-70
2022/05/11 04:07:39;;;;;;;2.92;1.92;;;19.90;56.30;;;;;;5094070;28;20174;-71
2022/05/11 04:10:05;;;;;;;2.47;1.77;;;19.90;56.20;;;;;;5094783;28;20177;-72
2022/05/11 04:12:34;;;;;;;2.10;1.90;;;19.90;56.20;;;;;;5093642;28;20213;-72
2022/05/11 04:14:59;;;;;;;1.83;1.73;;;19.90;56.30;;;;;;5094205;28;20529;-73
2022/05/11 04:17:25;;;;;;;3.17;2.13;;;19.90;56.40;;;;;;5094465;28;20204;-72
2022/05/11 04:19:50;;;;;;;2.42;2.03;;;19.90;56.30;;;;;;5093333;28;20207;-72
2022/05/11 04:22:16;;;;;;;1.48;1.30;;;19.90;56.30;;;;;;5094590;28;20262;-72
2022/05/11 04:24:41;;;;;;;1.75;1.65;;;19.90;56.30;;;;;;5094101;28;20173;-72
2022/05/11 04:27:07;;;;;;;2.00;1.80;;;19.90;56.30;;;;;;5093802;28;20305;-72
2022/05/11 04:29:32;;;;;;;2.13;1.88;;;19.90;56.30;;;;;;5094500;28;20644;-70
2022/05/11 04:31:58;;;;;;;2.15;1.85;;;19.90;56.30;;;;;;5093832;28;20221;-70
2022/05/11 04:34:24;;;;;;;2.17;1.60;;;19.90;56.30;;;;;;5093557;28;20256;-71
2022/05/11 04:36:49;;;;;;;2.63;2.03;;;19.90;56.20;;;;;;5092928;28;20197;-71
2022/05/11 04:39:15;;;;;;;2.67;1.90;;;19.90;56.20;;;;;;5094238;28;20208;-70
2022/05/11 04:41:41;;;;;;;1.60;1.50;;;19.90;56.30;;;;;;5092938;28;20178;-70
2022/05/11 04:44:06;;;;;;;1.73;1.63;;;19.90;56.20;;;;;;5094100;28;20178;-70
2022/05/11 04:46:33;;;;;;;1.77;1.67;;;19.90;56.20;;;;;;5094011;28;20196;-70
2022/05/11 04:51:45;;;;;;;1.83;1.60;;;19.90;56.30;;;;;;5093705;28;20231;-72
2022/05/11 04:54:11;;;;;;;2.53;1.77;;;19.90;56.30;;;;;;5094004;28;20385;-71
2022/05/11 04:56:38;;;;;;;1.65;1.50;;;19.90;56.20;;;;;;5092821;28;20177;-72
2022/05/11 04:59:05;;;;;;;1.80;1.70;;;19.90;56.20;;;;;;5093798;28;20270;-72
2022/05/11 05:01:30;;;;;;;2.15;1.60;;;19.90;56.30;;;;;;5093604;28;20655;-70
2022/05/11 05:03:59;;;;;;;2.55;1.90;;;19.90;56.30;;;;;;5092517;28;20233;-72
2022/05/11 05:06:24;;;;;;;2.03;1.85;;;19.90;56.20;;;;;;5093643;28;20184;-70
2022/05/11 05:08:52;;;;;;;2.83;1.73;;;19.90;56.40;;;;;;5092122;28;20197;-72
2022/05/11 05:11:17;;;;;;;2.42;1.58;;;19.90;56.40;;;;;;5093619;28;20200;-72
2022/05/11 05:13:43;;;;;;;1.70;1.60;;;19.90;56.30;;;;;;5093113;28;20672;-72
2022/05/11 05:16:08;;;;;;;2.63;1.70;;;19.80;56.20;;;;;;5092742;28;20178;-72
2022/05/11 05:18:35;;;;;;;2.13;1.58;;;19.90;56.20;;;;;;5093535;28;20178;-72
2022/05/11 05:21:00;;;;;;;1.70;1.60;;;19.90;56.20;;;;;;5093549;28;20170;-72
2022/05/11 05:23:26;;;;;;;1.83;1.70;;;19.90;56.10;;;;;;5092808;28;20192;-72
2022/05/11 05:25:51;;;;;;;2.42;1.50;;;19.90;56.10;;;;;;5093196;28;20169;-71
2022/05/11 05:31:05;;;;;;;1.50;1.40;;;19.90;56.10;;;;;;5092522;28;20269;-71
2022/05/11 05:33:34;;;;;;;3.00;1.60;;;19.90;56.10;;;;;;5091767;28;20235;-70
2022/05/11 05:36:01;;;;;;;1.98;1.42;;;19.90;56.10;;;;;;5092956;28;20235;-72
2022/05/11 05:38:27;;;;;;;1.58;1.45;;;19.90;56.10;;;;;;5091964;28;20173;-70
2022/05/11 05:40:53;;;;;;;1.92;1.50;;;19.90;56.20;;;;;;5092608;28;20181;-71
2022/05/11 05:43:19;;;;;;;1.80;1.70;;;19.90;56.10;;;;;;5092731;28;20181;-71
2022/05/11 05:45:52;;;;;;;1.48;1.38;;;19.90;56.10;;;;;;5091897;28;20261;-70
2022/05/11 05:48:19;;;;;;;1.80;1.45;;;19.90;56.20;;;;;;5092443;28;20253;-70
2022/05/11 05:50:44;;;;;;;2.20;1.60;;;19.90;56.10;;;;;;5092625;28;20173;-70
2022/05/11 05:53:10;;;;;;;2.00;1.90;;;19.90;56.10;;;;;;5091841;28;20202;-71
2022/05/11 05:55:36;;;;;;;1.73;1.63;;;19.90;56.10;;;;;;5092299;28;20253;-72
2022/05/11 05:58:03;;;;;;;1.60;1.50;;;19.90;56.00;;;;;;5092011;28;20173;-72
2022/05/11 06:00:29;;;;;;;1.55;1.40;;;19.90;56.00;;;;;;5092790;28;20192;-71
2022/05/11 06:02:55;;;;;;;1.60;1.50;;;20.00;56.00;;;;;;5092226;28;20185;-70
2022/05/11 06:05:20;;;;;;;3.30;1.38;;;19.90;55.90;;;;;;5091795;28;20655;-70
2022/05/11 06:07:46;;;;;;;1.50;1.40;;;20.00;55.90;;;;;;5092173;28;20222;-71
2022/05/11 06:10:11;;;;;;;1.50;1.40;;;20.00;55.90;;;;;;5092261;28;20264;-72
2022/05/11 06:12:37;;;;;;;2.45;1.80;;;20.00;55.80;;;;;;5091211;28;20644;-73
2022/05/11 06:15:05;;;;;;;1.92;1.75;;;20.10;55.70;;;;;;5092524;28;20185;-72
2022/05/11 06:17:32;;;;;;;1.98;1.48;;;20.10;55.70;;;;;;5092381;28;20510;-72
2022/05/11 06:19:57;;;;;;;1.80;1.65;;;20.10;55.70;;;;;;5091330;28;20527;-72
2022/05/11 06:22:24;;;;;;;1.63;1.50;;;20.10;55.70;;;;;;5092155;28;20174;-72
2022/05/11 06:24:50;;;;;;;1.58;1.40;;;20.10;55.70;;;;;;5091794;28;20247;-73
2022/05/11 06:27:18;;;;;;;1.77;1.67;;;20.10;55.70;;;;;;5091502;28;20166;-71
2022/05/11 06:29:51;;;;;;;1.90;1.60;;;20.10;55.70;;;;;;5091871;28;20205;-71
2022/05/11 06:32:19;;;;;;;2.20;1.35;;;20.10;55.70;;;;;;5092286;28;20210;-71
2022/05/11 06:34:44;;;;;;;1.42;1.30;;;20.10;55.60;;;;;;5091126;28;20169;-70
2022/05/11 06:37:10;;;;;;;1.70;1.60;;;20.10;55.60;;;;;;5092024;28;20176;-70
2022/05/11 06:39:36;;;;;;;1.85;1.40;;;20.20;55.70;;;;;;5091659;28;20270;-70
2022/05/11 06:42:02;;;;;;;1.73;1.63;;;20.20;55.60;;;;;;5091096;28;20299;-70
2022/05/11 06:44:28;;;;;;;1.60;1.50;;;20.20;55.60;;;;;;5090714;28;20600;-70
2022/05/11 06:46:53;;;;;;;1.27;1.17;;;20.20;55.60;;;;;;5091899;28;20173;-72
2022/05/11 06:49:19;;;;;;;2.63;1.60;;;20.20;55.60;;;;;;5091454;28;20176;-71
2022/05/11 06:51:44;;;;;;;1.92;1.50;;;20.20;55.60;;;;;;5091834;28;20181;-72
2022/05/11 06:59:38;;;;;;;4.53;1.33;;;20.30;55.70;;;;;;5091614;28;20184;-74
2022/05/11 07:02:04;;;;;;;1.92;1.80;;;20.30;55.50;;;;;;5094986;28;20177;-71
2022/05/11 07:04:33;;;;;;;3.00;1.60;;;20.30;55.70;;;;;;5095738;28;20637;-71
2022/05/11 07:07:02;;;;;;;3.67;1.38;;;20.40;55.50;;;;;;5095674;28;20173;-72
2022/05/11 07:09:31;;;;;;;1.70;1.27;;;20.40;55.50;;;;;;5095519;28;20520;-72
2022/05/11 07:14:41;;;;;;;1.30;1.15;;;20.40;55.50;;;;;;5095546;28;20226;-73
2022/05/11 07:17:06;;;;;;;1.65;1.48;;;20.40;55.40;;;;;;5095089;28;20178;-72
2022/05/11 07:19:33;;;;;;;2.15;1.50;;;20.50;55.50;;;;;;5095833;28;20616;-72
2022/05/11 07:21:58;;;;;;;3.15;1.50;;;20.50;55.30;;;;;;5095518;28;20251;-73
2022/05/11 07:24:24;;;;;;;5.30;1.40;;;20.50;55.20;;;;;;5095005;28;20661;-74
2022/05/11 07:26:49;;;;;;;4.30;1.60;;;20.50;55.10;;;;;;5095353;28;20173;-71
2022/05/11 07:29:15;;;;;;;1.95;1.13;;;20.50;55.10;;;;;;5095492;28;20170;-71
2022/05/11 07:31:41;;;;;;;1.65;1.40;;;20.60;55.00;;;;;;5094648;28;20174;-71
2022/05/11 07:34:07;;;;;;;1.55;1.40;;;20.70;55.00;;;;;;5095376;28;20296;-72
2022/05/11 07:36:32;;;;;;;1.63;1.48;;;20.60;55.00;;;;;;5094656;28;20193;-72
2022/05/11 07:38:58;;;;;;;3.65;1.10;;;20.60;55.00;;;;;;5095147;28;20173;-72
2022/05/11 07:41:23;;;;;;;1.23;1.13;;;20.60;55.20;;;;;;5095004;28;20174;-72
2022/05/11 07:43:49;;;;;;;2.92;1.40;;;20.60;55.30;;;;;;5094142;28;20181;-71
2022/05/11 07:46:14;;;;;;;1.77;1.55;;;20.60;55.30;;;;;;5095078;28;20170;-70
2022/05/11 07:48:40;;;;;;;1.48;1.10;;;20.60;55.30;;;;;;5094917;28;20253;-69
2022/05/11 07:51:05;;;;;;;1.08;0.80;;;20.60;55.30;;;;;;5094540;28;20174;-68
2022/05/11 07:53:32;;;;;;;3.28;1.30;;;20.60;55.30;;;;;;5094948;28;20216;-70
2022/05/11 08:01:27;;;;;;;4.78;1.50;;;20.60;55.10;;;;;;5094825;28;20180;-73
2022/05/11 08:03:52;;;;;;;1.80;1.40;;;20.60;55.20;;;;;;5094234;28;20308;-72
2022/05/11 08:06:19;;;;;;;3.10;1.38;;;20.60;55.10;;;;;;5094027;28;20676;-73
2022/05/11 08:08:45;;;;;;;5.20;1.50;;;20.60;55.10;;;;;;5094411;28;20181;-72
2022/05/11 08:11:10;;;;;;;3.08;1.55;;;20.60;55.00;;;;;;5094415;28;20204;-72
2022/05/11 08:13:36;;;;;;;4.28;1.23;;;20.60;55.00;;;;;;5093834;28;20343;-74
2022/05/11 08:16:01;;;;;;;5.40;1.40;;;20.60;55.00;;;;;;5094576;28;20193;-72
2022/05/11 08:18:27;;;;;;;4.43;1.52;;;20.60;54.90;;;;;;5094690;28;20257;-72
2022/05/11 08:20:53;;;;;;;2.50;1.45;;;20.50;54.70;;;;;;5093528;28;20576;-74
2022/05/11 08:23:19;;;;;;;2.65;1.35;;;20.50;54.60;;;;;;5094352;28;20265;-73
2022/05/11 08:25:49;;;;;;;3.65;1.20;;;20.60;54.10;;;;;;5093542;28;20202;-74
2022/05/11 08:28:16;;;;;;;4.88;1.73;;;20.60;53.80;;;;;;5094440;28;20185;-73
2022/05/11 08:33:27;;;;;;;5.93;1.40;;;20.60;53.60;;;;;;5093849;28;20351;-73
2022/05/11 08:35:55;;;;;;;4.65;1.27;;;20.50;53.40;;;;;;5094345;28;20180;-74
2022/05/11 08:38:21;;;;;;;2.45;1.20;;;20.60;52.90;;;;;;5094328;28;20264;-71
2022/05/11 08:41:04;;;;;;;4.85;1.08;;;20.70;53.00;;;;;;5093292;28;20247;-73
2022/05/11 08:43:31;;;;;;;3.03;1.67;;;20.70;52.90;;;;;;5093319;28;20253;-67
2022/05/11 08:46:20;;;;;;;5.03;1.70;;;20.70;52.80;;;;;;5094352;28;20230;-72
2022/05/11 08:48:48;;;;;;;5.40;1.80;;;20.70;52.80;;;;;;5091895;28;20189;-70
2022/05/11 08:51:21;;;;;;;7.32;1.88;;;20.70;52.90;;;;;;5094186;28;20192;-69
2022/05/11 08:53:48;;;;;;;5.25;1.80;;;20.70;53.00;;;;;;5091752;28;20217;-72
2022/05/11 08:56:17;;;;;;;3.17;1.42;;;20.70;53.00;;;;;;5092605;28;20477;-68
2022/05/11 08:58:45;;;;;;;4.70;1.50;;;20.70;53.20;;;;;;5092069;28;20663;-69
2022/05/11 09:01:30;;;;;;;4.03;1.10;;;20.80;53.30;;;;;;5092742;28;20185;-67
2022/05/11 09:03:58;;;;;;;3.88;1.52;;;20.80;53.20;;;;;;5091885;28;20221;-67
2022/05/11 09:06:28;;;;;;;4.53;1.40;;;20.70;53.30;;;;;;5092153;28;20181;-68
2022/05/11 09:08:57;;;;;;;3.38;1.35;;;20.80;54.20;;;;;;5092160;28;20265;-77
2022/05/11 09:11:32;;;;;;;6.03;1.75;;;20.80;53.50;;;;;;5093158;28;20209;-78
2022/05/11 09:13:58;;;;;;;4.18;1.60;;;20.90;53.60;;;;;;5093113;28;20309;-72
2022/05/11 09:16:35;;;;;;;7.05;1.52;;;20.90;53.30;;;;;;5092533;28;20186;-74
2022/05/11 09:19:10;;;;;;;5.18;1.50;;;20.90;53.30;;;;;;5092141;28;20182;-77
2022/05/11 09:21:52;;;;;;;4.93;1.30;;;21.00;53.50;;;;;;5092907;28;20173;-76
2022/05/11 09:24:17;;;;;;;6.22;1.48;;;21.00;53.30;;;;;;5092892;28;20181;-77
2022/05/11 09:26:44;;;;;;;4.65;1.30;;;21.00;53.30;;;;;;5092264;28;20273;-78
2022/05/11 09:29:19;;;;;;;4.78;1.83;;;21.00;53.40;;;;;;5092594;28;20221;-73
2022/05/11 09:31:46;;;;;;;5.68;2.05;;;21.00;53.40;;;;;;5092928;28;20269;-74
2022/05/11 09:34:14;;;;;;;3.65;1.33;;;21.00;53.30;;;;;;5092985;28;20589;-75
2022/05/11 09:36:53;;;;;;;2.28;1.20;;;21.10;53.40;;;;;;5085459;28;20224;-74
2022/05/11 09:39:19;;;;;;;2.92;1.23;;;21.10;53.40;;;;;;5093119;28;20177;-75
2022/05/11 09:41:49;;;;;;;3.92;1.55;;;21.10;53.40;;;;;;5092588;28;20231;-75
2022/05/11 09:44:22;;;;;;;3.85;1.30;;;21.10;53.30;;;;;;5090871;28;20660;-72
2022/05/11 09:46:48;;;;;;;2.45;1.00;;;21.10;53.40;;;;;;5092461;28;20235;-74
2022/05/11 09:49:19;;;;;;;3.40;1.50;;;21.20;53.50;;;;;;5091391;28;20864;-73
2022/05/11 09:51:45;;;;;;;3.38;1.27;;;21.20;53.60;;;;;;5091998;28;20256;-75
2022/05/11 09:54:46;;;;;;;3.30;1.27;;;21.20;53.60;;;;;;5092679;28;20305;-74
2022/05/11 09:57:12;;;;;;;4.03;1.48;;;21.20;53.60;;;;;;5077862;28;20196;-74
2022/05/11 09:59:45;;;;;;;2.97;1.20;;;21.20;53.60;;;;;;5092238;28;20587;-74
2022/05/11 10:02:32;;;;;;;2.45;1.50;;;21.30;53.40;;;;;;5092730;28;20174;-73
2022/05/11 10:05:14;;;;;;;2.72;1.35;;;21.20;53.50;;;;;;5091417;28;20228;-75
2022/05/11 10:07:45;;;;;;;2.38;1.05;;;21.30;53.60;;;;;;5092429;28;20177;-78
2022/05/11 10:10:36;;;;;;;2.47;1.15;;;21.30;53.60;;;;;;5091707;28;20177;-75
2022/05/11 10:13:26;;;;;;;2.28;1.10;;;21.30;53.60;;;;;;5079153;28;20225;-77
2022/05/11 10:21:53;;;;;;;3.85;1.40;;;21.40;53.60;;;;;;5091274;28;20310;-77
2022/05/11 10:24:24;;;;;;;3.08;1.30;;;21.40;53.80;;;;;;5091199;28;20264;-78
2022/05/11 10:27:15;;;;;;;2.20;1.23;;;21.40;53.70;;;;;;5091457;28;20211;-77
2022/05/11 10:29:57;;;;;;;2.70;1.08;;;21.40;53.70;;;;;;5092045;28;20235;-74
2022/05/11 10:32:28;;;;;;;2.10;1.23;;;21.40;53.60;;;;;;5091582;28;20262;-76
2022/05/11 10:35:13;;;;;;;3.15;1.58;;;21.40;53.80;;;;;;5091829;28;20325;-75
2022/05/11 10:38:01;;;;;;;2.08;1.20;;;21.40;53.70;;;;;;5074160;28;20206;-76
2022/05/11 10:40:38;;;;;;;2.50;1.10;;;21.40;53.80;;;;;;5091443;28;20260;-75
2022/05/11 10:43:23;;;;;;;2.08;1.40;;;21.50;53.90;;;;;;5091274;28;20161;-73
2022/05/11 10:45:55;;;;;;;3.25;1.40;;;21.50;53.80;;;;;;5092368;28;20168;-73
2022/05/11 10:48:43;;;;;;;1.92;1.42;;;21.50;53.80;;;;;;5074426;28;20169;-75
2022/05/11 10:51:14;;;;;;;1.95;1.23;;;21.50;53.80;;;;;;5092345;28;20169;-73
2022/05/11 10:53:46;;;;;;;1.58;1.30;;;21.50;53.70;;;;;;5089982;28;20212;-75
2022/05/11 10:56:23;;;;;;;2.47;1.13;;;21.50;53.80;;;;;;5090850;28;20166;-75
2022/05/11 10:59:26;;;;;;;3.22;0.88;;;21.50;53.60;;;;;;5090940;28;20189;-74
2022/05/11 11:02:11;;;;;;;2.15;1.13;;;21.50;53.80;;;;;;5090839;28;20182;-74
2022/05/11 11:04:45;;;;;;;3.75;1.48;;;21.60;53.80;;;;;;5090246;28;20233;-73
2022/05/11 11:07:11;;;;;;;3.15;1.20;;;21.50;53.70;;;;;;5091949;28;20210;-75
2022/05/11 11:09:56;;;;;;;3.03;1.30;;;21.60;53.80;;;;;;5090968;28;20198;-77
2022/05/11 11:12:39;;;;;;;2.00;1.25;;;21.60;53.90;;;;;;5091133;28;20201;-79
2022/05/11 11:15:10;;;;;;;2.65;1.17;;;21.50;53.90;;;;;;5073848;28;20620;-75
2022/05/11 11:17:35;;;;;;;7.22;1.50;;;21.60;53.90;;;;;;5074217;28;20173;-70
2022/05/11 11:20:02;;;;;;;2.47;1.38;;;21.60;53.90;;;;;;5073727;28;20192;-75
2022/05/11 11:22:27;;;;;;;3.80;1.30;;;21.70;53.80;;;;;;5073164;28;20272;-73
2022/05/11 11:25:14;;;;;;;3.65;1.63;;;21.60;53.90;;;;;;5091351;28;20645;-75
2022/05/11 11:28:08;;;;;;;4.47;1.15;;;21.70;53.90;;;;;;5091936;28;20177;-76
2022/05/11 11:30:34;;;;;;;2.72;1.40;;;21.70;54.00;;;;;;5091396;28;20188;-73
2022/05/11 11:33:15;;;;;;;5.18;1.60;;;21.70;53.90;;;;;;5091331;28;20712;-75
2022/05/11 11:35:43;;;;;;;6.28;1.60;;;21.70;53.90;;;;;;5090766;28;20170;-68
2022/05/11 11:38:09;;;;;;;2.78;1.25;;;21.80;54.10;;;;;;5091570;28;20601;-68
2022/05/11 11:40:35;;;;;;;5.18;1.48;;;21.80;54.00;;;;;;5090438;28;20546;-68
2022/05/11 11:43:38;;;;;;;3.60;1.20;;;21.80;53.80;;;;;;5091263;28;20178;-68
2022/05/11 11:45:50;;;;;;;7.30;2.10;;;21.90;53.80;;;;;;5091319;28;20202;-68
2022/05/11 11:48:23;;;;;;;2.78;1.42;;;21.90;53.80;;;;;;5095320;28;20177;-68
2022/05/11 11:50:51;;;;;;;1.63;1.10;;;21.90;53.80;;;;;;5094524;28;20311;-69
2022/05/11 11:53:24;;;;;;;2.45;1.52;;;21.90;53.70;;;;;;5095357;28;20213;-69
2022/05/11 11:55:50;;;;;;;3.85;1.10;;;21.90;53.70;;;;;;5095002;28;20190;-69
2022/05/11 11:58:30;;;;;;;4.00;1.27;;;21.90;53.70;;;;;;5094553;28;20215;-70
2022/05/11 12:01:06;;;;;;;4.35;1.52;;;21.90;53.70;;;;;;5094847;28;20261;-68
2022/05/11 12:03:38;;;;;;;2.33;1.00;;;21.90;53.70;;;;;;5094912;28;20312;-68
2022/05/11 12:17:05;;;;;;;3.50;1.50;;;22.00;53.60;;;;;;5094838;28;20651;-69
2022/05/11 12:19:37;;;;;;;2.88;1.15;;;22.00;53.60;;;;;;5092884;28;20177;-72
2022/05/11 12:22:23;;;;;;;4.15;1.35;;;22.00;53.60;;;;;;5094535;28;20532;-72
2022/05/11 12:25:00;;;;;;;1.60;1.00;;;22.00;53.30;;;;;;5093926;28;20186;-73
2022/05/11 12:27:36;;;;;;;2.85;1.17;;;21.90;53.30;;;;;;5093301;28;20182;-71
2022/05/11 12:30:08;;;;;;;2.88;1.40;;;21.90;53.20;;;;;;5094887;28;20260;-70
2022/05/11 12:32:35;;;;;;;5.07;1.27;;;21.90;53.20;;;;;;5094093;28;20288;-69
2022/05/11 12:35:10;;;;;;;5.50;1.63;;;22.00;53.30;;;;;;5094622;28;20209;-72
2022/05/11 12:37:37;;;;;;;2.78;1.02;;;22.00;53.30;;;;;;5094217;28;20609;-70
2022/05/11 12:40:13;;;;;;;3.60;1.45;;;22.00;53.30;;;;;;5093823;28;20307;-71
2022/05/11 12:43:11;;;;;;;4.95;1.50;;;22.00;53.20;;;;;;5094399;28;20166;-70
2022/05/11 12:45:42;;;;;;;3.25;1.23;;;22.10;53.10;;;;;;5073583;28;20182;-69
2022/05/11 12:48:08;;;;;;;2.03;1.38;;;22.10;53.00;;;;;;5093671;28;20182;-70
2022/05/11 12:50:38;;;;;;;3.55;1.30;;;22.10;53.00;;;;;;5076670;28;20174;-70
2022/05/11 12:53:17;;;;;;;2.25;1.25;;;22.20;53.00;;;;;;5093719;28;20256;-72
2022/05/11 12:55:45;;;;;;;2.60;1.23;;;22.30;52.90;;;;;;5094072;28;20173;-73
2022/05/11 12:58:25;;;;;;;2.35;1.10;;;22.30;52.90;;;;;;5091827;28;20190;-71
2022/05/11 13:00:58;;;;;;;4.40;0.95;;;22.30;52.90;;;;;;5093024;28;20520;-70
2022/05/11 13:03:34;;;;;;;2.47;1.10;;;22.40;52.80;;;;;;5094216;28;20249;-70
2022/05/11 13:06:05;;;;;;;1.13;1.00;;;22.30;52.70;;;;;;5094357;28;20177;-70
2022/05/11 13:08:36;;;;;;;2.67;1.10;;;22.40;52.70;;;;;;5092226;28;20177;-71
2022/05/11 13:11:01;;;;;;;2.83;0.95;;;22.40;52.70;;;;;;5092736;28;20182;-73
2022/05/11 13:13:31;;;;;;;1.55;1.20;;;22.50;52.70;;;;;;5092865;28;20206;-72
2022/05/11 13:16:05;;;;;;;1.73;1.05;;;22.50;52.60;;;;;;5075215;28;20181;-73
2022/05/11 13:18:31;;;;;;;1.17;0.93;;;22.50;52.60;;;;;;5093825;28;20268;-73
2022/05/11 13:21:00;;;;;;;1.70;1.00;;;22.60;52.60;;;;;;5092295;28;20256;-74
2022/05/11 13:23:25;;;;;;;4.03;1.38;;;22.60;52.70;;;;;;5092110;28;20181;-72
2022/05/11 13:25:52;;;;;;;2.25;0.90;;;22.60;52.60;;;;;;5093327;28;20249;-72
2022/05/11 13:28:29;;;;;;;2.63;1.02;;;22.70;52.60;;;;;;5091544;28;20605;-72
2022/05/11 13:31:31;;;;;;;1.20;1.08;;;22.60;52.60;;;;;;5093255;28;20196;-71
2022/05/11 13:33:57;;;;;;;1.45;1.08;;;22.60;52.70;;;;;;5092956;28;20197;-70
2022/05/11 13:36:39;;;;;;;1.65;1.13;;;22.70;52.60;;;;;;5092705;28;20181;-70
2022/05/11 13:39:12;;;;;;;1.95;1.10;;;22.80;52.60;;;;;;5093627;28;20178;-70
2022/05/11 13:41:53;;;;;;;2.45;1.27;;;22.80;52.60;;;;;;5092877;28;20174;-68
2022/05/11 13:44:38;;;;;;;3.28;1.23;;;22.80;52.50;;;;;;5091628;28;20226;-69
2022/05/11 13:50:44;;;;;;;1.50;1.40;;;22.90;52.50;;;;;;5071423;28;20216;-70
2022/05/11 13:53:12;;;;;;;1.20;1.02;;;22.90;52.50;;;;;;5093107;28;20213;-70